KHII/HII METAR and TAF weather

Enter ICAO airport designator
Station Type Date Time Source
KHII METAR 2019/12/09 00:35 UTC NOAA

KHII 090035Z AUTO 15006KT 10SM CLR 16/12 A2993 RMK AO2


Station Type Date Time Source
KHII Decoded METAR 2019/12/09 00:35 UTC NOAA

Station name not available
Dec 08, 2019 - 07:35 PM EST / 2019.12.09 0035 UTC
Wind: from the SSE (150 degrees) at 7 MPH (6 KT):0
Visibility: 10 mile(s):0
Sky conditions: clear
Temperature: 60 F (16 C)
Dew Point: 53 F (12 C)
Relative Humidity: 77%
Pressure (altimeter): 29.93 in. Hg (1013 hPa)
ob: KHII 090035Z AUTO 15006KT 10SM CLR 16/12 A2993 RMK AO2
cycle: 0

Station Type Date Time Source
KHII TAF UTC NOAA

Error!

Example: see airport list